createdAt,value
2018-10-17T00:02:26.087Z,18.70
2018-10-17T00:05:59.303Z,17.50
2018-10-17T00:09:32.508Z,20.80
2018-10-17T00:13:05.786Z,19.03
2018-10-17T00:16:38.946Z,19.77
2018-10-17T00:20:12.156Z,20.27
2018-10-17T00:23:45.391Z,21.70
2018-10-17T00:27:18.625Z,20.50
2018-10-17T00:30:51.840Z,20.90
2018-10-17T00:34:25.060Z,20.53
2018-10-17T00:37:58.278Z,20.07
2018-10-17T00:41:31.497Z,19.80
2018-10-17T00:45:05.207Z,18.93
2018-10-17T00:48:38.415Z,18.43
2018-10-17T00:52:11.642Z,18.27
2018-10-17T00:55:44.850Z,19.60
2018-10-17T00:59:18.081Z,18.90
2018-10-17T01:02:51.307Z,21.10
2018-10-17T01:06:24.535Z,19.60
2018-10-17T01:09:57.769Z,20.00
2018-10-17T01:13:30.993Z,18.20
2018-10-17T01:17:04.337Z,20.70
2018-10-17T01:20:37.584Z,18.57
2018-10-17T01:24:10.829Z,19.50
2018-10-17T01:27:44.067Z,19.87
2018-10-17T01:31:17.384Z,20.83
2018-10-17T01:34:50.543Z,20.97
2018-10-17T01:38:23.785Z,18.43
2018-10-17T01:41:57.027Z,19.23
2018-10-17T01:45:30.267Z,20.13
2018-10-17T01:49:03.534Z,18.90
2018-10-17T01:52:36.759Z,19.20
2018-10-17T01:56:09.991Z,20.40
2018-10-17T01:59:43.221Z,18.57
2018-10-17T02:03:16.444Z,17.97
2018-10-17T02:06:49.671Z,18.80
2018-10-17T02:10:22.914Z,20.40
2018-10-17T02:13:56.153Z,19.53
2018-10-17T02:17:29.388Z,20.57
2018-10-17T02:21:02.632Z,21.60
2018-10-17T02:24:35.868Z,21.70
2018-10-17T02:28:09.142Z,22.17
2018-10-17T02:31:42.381Z,20.83
2018-10-17T02:35:16.952Z,20.60
2018-10-17T02:38:50.105Z,19.77
2018-10-17T02:42:23.348Z,19.30
2018-10-17T02:45:56.571Z,21.10
2018-10-17T02:49:29.804Z,20.40
2018-10-17T02:53:03.107Z,20.50
2018-10-17T02:56:36.274Z,19.30
2018-10-17T03:00:09.922Z,20.20
2018-10-17T03:03:43.164Z,18.93
2018-10-17T03:07:16.406Z,21.33
2018-10-17T03:10:49.626Z,19.80
2018-10-17T03:14:22.859Z,23.03
2018-10-17T03:17:56.095Z,20.20
2018-10-17T03:21:29.328Z,20.17
2018-10-17T03:25:02.583Z,20.70
2018-10-17T03:28:35.811Z,19.17
2018-10-17T03:32:09.050Z,18.67
2018-10-17T03:35:42.349Z,19.67
2018-10-17T03:39:15.538Z,21.40
2018-10-17T03:42:48.769Z,21.40
2018-10-17T03:46:22.009Z,19.40
2018-10-17T03:49:55.329Z,21.90
2018-10-17T03:53:28.522Z,25.97
2018-10-17T03:57:01.848Z,20.10
2018-10-17T04:00:35.072Z,19.20
2018-10-17T04:04:08.304Z,22.53
2018-10-17T04:07:41.519Z,22.47
2018-10-17T04:11:14.783Z,20.63
2018-10-17T04:14:47.995Z,21.60
2018-10-17T04:18:21.218Z,18.80
2018-10-17T04:21:54.460Z,21.20
2018-10-17T04:25:27.706Z,20.17
2018-10-17T04:29:00.977Z,19.50
2018-10-17T04:32:34.168Z,18.53
2018-10-17T04:36:07.574Z,16.27
2018-10-17T04:39:40.787Z,18.60
2018-10-17T04:43:14.098Z,17.60
2018-10-17T04:46:47.249Z,19.80
2018-10-17T04:50:20.486Z,21.33
2018-10-17T04:53:53.724Z,20.70
2018-10-17T04:57:26.956Z,24.07
2018-10-17T05:01:00.254Z,21.40
2018-10-17T05:04:33.513Z,20.00
2018-10-17T05:08:06.719Z,21.70
2018-10-17T05:11:40.464Z,20.77
2018-10-17T05:15:13.706Z,19.33
2018-10-17T05:18:46.939Z,20.47
2018-10-17T05:22:20.157Z,22.67
2018-10-17T05:25:53.425Z,21.43
2018-10-17T05:29:26.653Z,21.37
2018-10-17T05:32:59.908Z,21.50
2018-10-17T05:36:33.218Z,22.23
2018-10-17T05:40:06.521Z,23.20
2018-10-17T05:43:39.753Z,20.50
2018-10-17T05:47:13.507Z,23.27
2018-10-17T05:50:46.761Z,21.83
2018-10-17T05:54:20.354Z,23.23
2018-10-17T05:57:54.200Z,20.33
2018-10-17T06:01:27.519Z,20.87
2018-10-17T06:05:00.779Z,20.27
2018-10-17T06:08:33.995Z,22.00
2018-10-17T06:12:07.231Z,22.77
2018-10-17T06:15:40.460Z,21.97
2018-10-17T06:19:14.292Z,24.43
2018-10-17T06:22:47.461Z,21.07
2018-10-17T06:26:20.907Z,23.00
2018-10-17T06:29:54.151Z,23.97
2018-10-17T06:33:27.380Z,23.13
2018-10-17T06:37:00.655Z,21.63
2018-10-17T06:40:33.880Z,23.47
2018-10-17T06:44:07.565Z,24.07
2018-10-17T06:47:40.775Z,22.90
2018-10-17T06:51:14.101Z,20.87
2018-10-17T06:54:47.312Z,22.47
2018-10-17T06:58:20.551Z,23.93
2018-10-17T07:01:53.837Z,22.57
2018-10-17T07:05:27.006Z,23.97
2018-10-17T07:09:00.244Z,23.80
2018-10-17T07:12:33.486Z,25.27
2018-10-17T07:16:06.782Z,25.13
2018-10-17T07:19:39.997Z,23.20
2018-10-17T07:23:13.305Z,25.27
2018-10-17T07:26:46.485Z,24.43
2018-10-17T07:30:19.768Z,25.47
2018-10-17T07:33:53.000Z,23.57
2018-10-17T07:37:26.238Z,26.83
2018-10-17T07:40:59.499Z,25.03
2018-10-17T07:44:32.707Z,27.33
2018-10-17T07:48:05.996Z,25.70
2018-10-17T07:51:39.264Z,26.53
2018-10-17T07:55:12.841Z,23.50
2018-10-17T07:58:46.070Z,25.37
2018-10-17T08:02:19.299Z,28.60
2018-10-17T08:05:52.559Z,25.27
2018-10-17T08:09:25.780Z,28.50
2018-10-17T08:12:59.031Z,29.67
2018-10-17T08:16:32.257Z,27.00
2018-10-17T08:20:07.357Z,26.90
2018-10-17T08:23:40.576Z,28.43
2018-10-17T08:27:13.855Z,26.97
2018-10-17T08:30:47.059Z,31.03
2018-10-17T08:34:20.303Z,27.00
2018-10-17T08:37:53.890Z,29.07
2018-10-17T08:41:26.765Z,26.10
2018-10-17T08:45:00.152Z,25.10
2018-10-17T08:48:33.319Z,29.80
2018-10-17T08:52:06.560Z,30.90
2018-10-17T08:55:39.793Z,33.27
2018-10-17T08:59:13.469Z,31.30
2018-10-17T09:02:46.692Z,31.40
2018-10-17T09:06:20.011Z,35.03
2018-10-17T09:09:53.163Z,34.07
2018-10-17T09:13:26.462Z,32.57
2018-10-17T09:16:59.647Z,32.77
2018-10-17T09:20:33.224Z,36.20
2018-10-17T09:24:06.173Z,35.20
2018-10-17T09:27:39.368Z,33.50
2018-10-17T09:31:12.601Z,32.40
2018-10-17T09:34:45.845Z,32.37
2018-10-17T09:38:19.075Z,34.40
2018-10-17T09:41:52.357Z,32.50
2018-10-17T09:45:25.557Z,35.27
2018-10-17T09:48:58.784Z,32.73
2018-10-17T09:52:31.997Z,33.37
2018-10-17T09:56:05.292Z,32.30
2018-10-17T09:59:38.526Z,35.33
2018-10-17T10:03:11.749Z,34.73
2018-10-17T10:06:44.967Z,34.90
2018-10-17T10:10:18.268Z,32.73
2018-10-17T10:13:51.460Z,35.73
2018-10-17T10:17:24.732Z,35.43
2018-10-17T10:20:57.930Z,37.30
2018-10-17T10:24:31.162Z,36.17
2018-10-17T10:28:04.544Z,31.90
2018-10-17T10:31:37.682Z,37.10
2018-10-17T10:35:10.923Z,37.33
2018-10-17T10:38:44.165Z,35.00
2018-10-17T10:42:17.499Z,35.47
2018-10-17T10:45:50.645Z,36.00
2018-10-17T10:49:23.873Z,39.60
2018-10-17T10:52:57.134Z,37.30
2018-10-17T10:56:30.341Z,37.37
2018-10-17T11:00:03.636Z,39.07
2018-10-17T11:03:36.873Z,38.40
2018-10-17T11:07:10.111Z,37.50
2018-10-17T11:10:43.340Z,36.00
2018-10-17T11:14:16.793Z,31.67
2018-10-17T11:17:49.824Z,33.43
2018-10-17T11:21:23.053Z,34.43
2018-10-17T11:24:56.269Z,33.53
2018-10-17T11:28:29.492Z,31.90
2018-10-17T11:32:02.794Z,34.60
2018-10-17T11:35:35.968Z,33.20
2018-10-17T11:39:10.037Z,33.17
2018-10-17T11:42:43.226Z,34.17
2018-10-17T11:46:16.466Z,32.80
2018-10-17T11:49:49.716Z,34.93
2018-10-17T11:53:22.953Z,36.00
2018-10-17T11:56:56.215Z,36.40
2018-10-17T12:00:29.437Z,35.00
2018-10-17T12:04:03.019Z,39.00
2018-10-17T12:07:35.944Z,33.97
2018-10-17T12:11:09.212Z,30.50
2018-10-17T12:14:42.460Z,33.70
2018-10-17T12:18:15.796Z,32.80
2018-10-17T12:21:48.944Z,32.03
2018-10-17T12:25:22.176Z,29.23
2018-10-17T12:28:55.418Z,28.90
2018-10-17T12:32:28.644Z,28.07
2018-10-17T12:36:01.901Z,25.23
2018-10-17T12:39:35.179Z,24.17
2018-10-17T12:43:08.356Z,25.40
2018-10-17T12:46:41.594Z,22.93
2018-10-17T12:50:14.863Z,22.77
2018-10-17T12:53:48.252Z,23.07
2018-10-17T12:57:21.477Z,19.77
2018-10-17T13:00:54.931Z,21.33
2018-10-17T13:04:28.128Z,21.57
2018-10-17T13:08:01.372Z,20.43
2018-10-17T13:11:34.645Z,19.90
2018-10-17T13:15:09.075Z,21.27
2018-10-17T13:18:42.235Z,20.20
2018-10-17T13:22:15.464Z,21.90
2018-10-17T13:25:48.697Z,27.80
2018-10-17T13:29:21.933Z,24.43
2018-10-17T13:32:55.145Z,22.73
2018-10-17T13:36:28.379Z,23.03
2018-10-17T13:40:01.636Z,24.00
2018-10-17T13:43:34.877Z,23.70
2018-10-17T13:47:08.147Z,23.40
2018-10-17T13:50:41.361Z,19.93
2018-10-17T13:54:14.599Z,23.53
2018-10-17T13:57:47.922Z,25.10
2018-10-17T14:01:21.065Z,21.90
2018-10-17T14:04:54.504Z,22.93
2018-10-17T14:08:27.741Z,21.20
2018-10-17T14:12:00.994Z,20.00
2018-10-17T14:15:34.230Z,15.77
2018-10-17T14:19:07.449Z,16.73
2018-10-17T14:22:40.690Z,24.70
2018-10-17T14:26:13.937Z,25.27
2018-10-17T14:29:47.402Z,25.00
2018-10-17T14:33:20.643Z,27.17
2018-10-17T14:36:53.900Z,25.87
2018-10-17T14:40:27.128Z,27.50
2018-10-17T14:44:00.372Z,27.10
2018-10-17T14:47:33.613Z,25.10
2018-10-17T14:51:06.882Z,25.67
2018-10-17T14:54:40.136Z,22.90
2018-10-17T14:58:13.405Z,24.10
2018-10-17T15:01:46.627Z,22.80
2018-10-17T15:05:19.996Z,21.57
2018-10-17T15:08:53.152Z,21.97
2018-10-17T15:12:26.366Z,23.00
2018-10-17T15:15:59.595Z,23.73
2018-10-17T15:19:32.824Z,23.47
2018-10-17T15:23:06.080Z,22.40
2018-10-17T15:26:39.312Z,22.30
2018-10-17T15:30:12.588Z,26.33
2018-10-17T15:33:45.790Z,23.20
2018-10-17T15:37:19.048Z,24.23
2018-10-17T15:40:52.277Z,22.33
2018-10-17T15:44:25.500Z,22.70
2018-10-17T15:47:58.781Z,22.80
2018-10-17T15:51:32.004Z,21.20
2018-10-17T15:55:05.601Z,21.40
2018-10-17T15:58:38.844Z,24.23
2018-10-17T16:02:12.149Z,23.50
2018-10-17T16:05:45.338Z,22.37
2018-10-17T16:09:18.585Z,25.00
2018-10-17T16:12:51.820Z,34.40
2018-10-17T16:16:25.065Z,29.40
2018-10-17T16:19:58.377Z,26.80
2018-10-17T16:23:31.596Z,24.37
2018-10-17T16:27:05.028Z,21.47
2018-10-17T16:30:38.310Z,23.73
2018-10-17T16:34:11.491Z,25.63
2018-10-17T16:37:44.724Z,27.17
2018-10-17T16:41:18.038Z,35.90
2018-10-17T16:44:51.208Z,27.90
2018-10-17T16:48:24.443Z,26.27
2018-10-17T16:51:57.703Z,24.67
2018-10-17T16:55:30.948Z,23.90
2018-10-17T16:59:04.181Z,39.30
2018-10-17T17:02:37.437Z,39.90
2018-10-17T17:06:10.791Z,33.17
2018-10-17T17:09:43.917Z,30.37
2018-10-17T17:13:17.176Z,24.00
2018-10-17T17:16:50.401Z,27.17
2018-10-17T17:20:23.639Z,25.87
2018-10-17T17:23:56.901Z,25.47
2018-10-17T17:27:30.140Z,24.27
2018-10-17T17:31:03.372Z,26.13
2018-10-17T17:34:36.979Z,26.00
2018-10-17T17:38:10.227Z,27.83
2018-10-17T17:41:43.473Z,25.20
2018-10-17T17:45:16.710Z,22.70
2018-10-17T17:48:49.940Z,25.60
2018-10-17T17:52:23.236Z,25.90
2018-10-17T17:55:56.450Z,23.10
2018-10-17T17:59:29.703Z,21.80
2018-10-17T18:03:02.925Z,22.30
2018-10-17T18:06:36.211Z,29.53
2018-10-17T18:10:09.588Z,25.13
2018-10-17T18:13:43.100Z,26.33
2018-10-17T18:17:16.787Z,27.30
2018-10-17T18:20:50.040Z,26.80
2018-10-17T18:24:23.301Z,25.63
2018-10-17T18:27:57.654Z,28.70
2018-10-17T18:31:31.376Z,28.60
2018-10-17T18:35:05.392Z,26.73
2018-10-17T18:38:38.652Z,24.47
2018-10-17T18:42:11.917Z,24.90
2018-10-17T18:45:45.595Z,23.00
2018-10-17T18:49:18.812Z,25.30
2018-10-17T18:52:52.053Z,21.03
2018-10-17T18:56:25.305Z,23.07
2018-10-17T18:59:58.560Z,24.00
2018-10-17T19:03:31.812Z,22.70
2018-10-17T19:07:06.026Z,24.50
2018-10-17T19:10:39.253Z,26.47
2018-10-17T19:14:12.504Z,21.30
2018-10-17T19:17:47.276Z,25.83
2018-10-17T19:21:20.638Z,28.40
2018-10-17T19:24:54.088Z,30.60
2018-10-17T19:28:27.357Z,27.40
2018-10-17T19:32:00.789Z,26.70
2018-10-17T19:35:34.067Z,25.00
2018-10-17T19:39:09.141Z,23.23
2018-10-17T19:42:42.369Z,22.90
2018-10-17T19:46:15.636Z,22.10
2018-10-17T19:49:49.201Z,24.30
2018-10-17T19:53:22.574Z,22.43
2018-10-17T19:56:55.848Z,23.40
2018-10-17T20:00:29.081Z,34.67
2018-10-17T20:04:02.341Z,26.43
2018-10-17T20:07:35.655Z,28.10
2018-10-17T20:11:08.873Z,25.23
2018-10-17T20:14:42.146Z,29.80
2018-10-17T20:18:15.457Z,29.87
2018-10-17T20:21:49.464Z,28.47
2018-10-17T20:25:23.065Z,27.67
2018-10-17T20:28:58.534Z,28.90
2018-10-17T20:32:32.657Z,28.27
2018-10-17T20:36:06.893Z,25.23
2018-10-17T20:39:40.379Z,28.20
2018-10-17T20:43:13.779Z,26.90
2018-10-17T20:46:47.878Z,25.63
2018-10-17T20:50:21.275Z,25.97
2018-10-17T20:53:54.627Z,27.13
2018-10-17T20:57:28.017Z,27.80
2018-10-17T21:01:01.399Z,27.27
2018-10-17T21:04:35.839Z,26.53
2018-10-17T21:08:09.721Z,26.97
2018-10-17T21:11:43.163Z,23.90
2018-10-17T21:15:16.624Z,24.43
2018-10-17T21:18:50.604Z,27.20
2018-10-17T21:22:24.629Z,24.43
2018-10-17T21:25:58.325Z,25.53
2018-10-17T21:29:31.916Z,25.27
2018-10-17T21:33:05.460Z,25.10
2018-10-17T21:36:38.733Z,28.17
2018-10-17T21:40:12.033Z,25.47
2018-10-17T21:43:45.259Z,28.67
2018-10-17T21:47:18.563Z,24.20
2018-10-17T21:50:51.761Z,22.17
2018-10-17T21:54:25.006Z,24.70
2018-10-17T21:57:58.248Z,24.07
2018-10-17T22:01:31.491Z,26.33
2018-10-17T22:05:06.342Z,25.30
2018-10-17T22:08:39.580Z,28.00
2018-10-17T22:12:12.836Z,26.67
2018-10-17T22:15:46.084Z,27.10
2018-10-17T22:19:19.559Z,28.90
2018-10-17T22:22:52.585Z,26.80
2018-10-17T22:26:25.848Z,27.93
2018-10-17T22:29:59.134Z,26.50
2018-10-17T22:33:32.379Z,28.17
2018-10-17T22:37:06.443Z,26.30
2018-10-17T22:40:39.688Z,44.30
2018-10-17T22:44:13.013Z,30.60
2018-10-17T22:47:46.229Z,28.07
2018-10-17T22:51:19.508Z,29.80
2018-10-17T22:54:52.774Z,26.00
2018-10-17T22:58:26.090Z,25.97
2018-10-17T23:01:59.345Z,25.43
2018-10-17T23:05:32.589Z,25.67
2018-10-17T23:09:10.349Z,27.07
2018-10-17T23:12:43.575Z,26.67
2018-10-17T23:16:16.824Z,23.93
2018-10-17T23:19:50.074Z,23.20
2018-10-17T23:23:23.308Z,24.40
2018-10-17T23:26:56.558Z,28.63
2018-10-17T23:30:29.802Z,25.87
2018-10-17T23:34:03.067Z,25.17
2018-10-17T23:37:36.325Z,28.57
2018-10-17T23:41:09.580Z,26.90
2018-10-17T23:44:42.882Z,25.00
2018-10-17T23:48:16.202Z,27.23
2018-10-17T23:51:49.363Z,24.13
2018-10-17T23:55:22.605Z,27.30
2018-10-17T23:58:55.852Z,27.40
